createdAt,value
2023-01-28T00:00:57.281Z,9.45
2023-01-28T00:03:23.925Z,8.07
2023-01-28T00:05:50.925Z,9.02
2023-01-28T00:08:17.334Z,8.50
2023-01-28T00:10:43.929Z,7.95
2023-01-28T00:13:14.651Z,7.65
2023-01-28T00:15:41.763Z,7.70
2023-01-28T00:18:08.200Z,7.68
2023-01-28T00:20:35.309Z,6.93
2023-01-28T00:23:01.981Z,8.90
2023-01-28T00:25:28.344Z,7.97
2023-01-28T00:27:55.134Z,9.05
2023-01-28T00:30:21.923Z,9.07
2023-01-28T00:32:48.288Z,8.68
2023-01-28T00:35:15.475Z,11.77
2023-01-28T00:37:42.277Z,9.40
2023-01-28T00:40:09.928Z,6.97
2023-01-28T00:42:37.511Z,7.95
2023-01-28T00:45:04.259Z,7.75
2023-01-28T00:47:30.639Z,7.18
2023-01-28T00:49:57.181Z,7.65
2023-01-28T00:52:23.653Z,7.65
2023-01-28T00:54:50.025Z,9.48
2023-01-28T00:57:16.407Z,9.32
2023-01-28T00:59:43.594Z,8.48
2023-01-28T01:02:13.160Z,9.43
2023-01-28T01:04:40.575Z,9.43
2023-01-28T01:07:07.295Z,10.80
2023-01-28T01:09:33.716Z,9.85
2023-01-28T01:12:00.177Z,10.48
2023-01-28T01:14:26.747Z,9.88
2023-01-28T01:16:53.143Z,9.85
2023-01-28T01:19:19.695Z,8.68
2023-01-28T01:21:50.285Z,10.65
2023-01-28T01:24:16.846Z,11.23
2023-01-28T01:26:43.482Z,8.77
2023-01-28T01:29:09.938Z,11.05
2023-01-28T01:31:36.519Z,8.00
2023-01-28T01:34:02.985Z,10.25
2023-01-28T01:36:29.508Z,7.78
2023-01-28T01:38:56.337Z,7.30
2023-01-28T01:41:32.081Z,8.23
2023-01-28T01:44:01.459Z,9.27
2023-01-28T01:46:45.978Z,7.13
2023-01-28T01:49:23.440Z,8.95
2023-01-28T01:51:54.610Z,7.25
2023-01-28T01:54:26.681Z,8.25
2023-01-28T01:56:53.342Z,10.68
2023-01-28T01:59:24.818Z,8.57
2023-01-28T02:01:52.399Z,7.50
2023-01-28T02:04:32.324Z,7.45
2023-01-28T02:07:01.390Z,6.22
2023-01-28T02:09:38.408Z,7.32
2023-01-28T02:12:10.265Z,7.55
2023-01-28T02:14:42.264Z,6.68
2023-01-28T02:17:09.435Z,7.13
2023-01-28T02:19:57.209Z,8.95
2023-01-28T02:22:45.714Z,7.97
2023-01-28T02:25:36.743Z,9.00
2023-01-28T02:28:15.646Z,7.10
2023-01-28T02:30:51.770Z,8.55
2023-01-28T02:33:28.385Z,8.25
2023-01-28T02:35:56.087Z,8.02
2023-01-28T02:38:37.608Z,7.90
2023-01-28T02:41:11.736Z,9.48
2023-01-28T02:43:44.601Z,8.63
2023-01-28T02:46:32.971Z,8.65
2023-01-28T02:48:59.708Z,9.95
2023-01-28T02:51:37.844Z,10.00
2023-01-28T02:54:12.672Z,9.07
2023-01-28T02:57:05.997Z,9.82
2023-01-28T02:59:55.625Z,9.07
2023-01-28T03:02:50.707Z,11.60
2023-01-28T03:05:29.537Z,10.10
2023-01-28T03:07:57.398Z,12.45
2023-01-28T03:10:27.298Z,11.00
2023-01-28T03:13:15.120Z,11.35
2023-01-28T03:16:05.231Z,12.75
2023-01-28T03:19:10.831Z,13.77
2023-01-28T03:22:01.358Z,13.88
2023-01-28T03:24:56.907Z,12.63
2023-01-28T03:27:52.419Z,12.65
2023-01-28T03:30:48.090Z,12.05
2023-01-28T03:33:45.007Z,10.82
2023-01-28T03:36:30.632Z,14.57
2023-01-28T03:38:58.431Z,13.88
2023-01-28T03:41:26.255Z,14.90
2023-01-28T03:43:56.009Z,15.15
2023-01-28T03:46:22.721Z,17.13
2023-01-28T03:48:49.167Z,13.93
2023-01-28T03:51:16.517Z,16.33
2023-01-28T03:53:42.911Z,13.25
2023-01-28T03:56:18.041Z,15.60
2023-01-28T03:58:56.332Z,16.08
2023-01-28T04:01:24.091Z,14.80
2023-01-28T04:03:50.594Z,13.65
2023-01-28T04:06:28.825Z,16.33
2023-01-28T04:09:14.081Z,12.32
2023-01-28T04:11:50.890Z,15.88
2023-01-28T04:14:23.773Z,14.77
2023-01-28T04:16:56.788Z,13.90
2023-01-28T04:19:26.070Z,15.70
2023-01-28T04:21:54.393Z,16.80
2023-01-28T04:24:22.723Z,16.30
2023-01-28T04:26:50.202Z,15.40
2023-01-28T04:29:16.861Z,15.50
2023-01-28T04:31:43.921Z,16.65
2023-01-28T04:34:34.496Z,15.93
2023-01-28T04:37:22.075Z,17.63
2023-01-28T04:40:07.739Z,17.02
2023-01-28T04:42:54.465Z,19.27
2023-01-28T04:45:30.970Z,16.13
2023-01-28T04:48:25.651Z,14.88
2023-01-28T04:51:06.304Z,16.33
2023-01-28T04:53:35.637Z,17.27
2023-01-28T04:56:22.376Z,20.27
2023-01-28T04:58:48.760Z,17.92
2023-01-28T05:01:16.566Z,16.52
2023-01-28T05:03:42.990Z,18.88
2023-01-28T05:06:14.757Z,17.80
2023-01-28T05:08:43.451Z,17.95
2023-01-28T05:11:09.895Z,17.75
2023-01-28T05:13:36.323Z,17.02
2023-01-28T05:16:03.609Z,17.73
2023-01-28T05:18:30.148Z,17.42
2023-01-28T05:21:09.420Z,17.42
2023-01-28T05:23:38.590Z,18.08
2023-01-28T05:26:05.951Z,19.15
2023-01-28T05:28:33.903Z,17.80
2023-01-28T05:31:07.275Z,18.30
2023-01-28T05:36:01.580Z,21.88
2023-01-28T05:38:28.388Z,18.70
2023-01-28T05:40:55.018Z,20.30
2023-01-28T05:43:21.889Z,20.25
2023-01-28T05:46:08.691Z,19.15
2023-01-28T05:48:55.073Z,20.35
2023-01-28T05:51:44.197Z,21.02
2023-01-28T05:54:14.209Z,21.20
2023-01-28T05:56:40.837Z,19.77
2023-01-28T05:59:07.313Z,19.48
2023-01-28T06:01:35.157Z,19.50
2023-01-28T06:04:01.681Z,20.02
2023-01-28T06:06:30.983Z,19.92
2023-01-28T06:08:57.576Z,20.23
2023-01-28T06:11:29.737Z,23.67
2023-01-28T06:14:00.804Z,20.70
2023-01-28T06:16:52.146Z,23.75
2023-01-28T06:19:26.416Z,21.90
2023-01-28T06:21:52.899Z,22.63
2023-01-28T06:24:19.919Z,21.70
2023-01-28T06:26:46.324Z,21.90
2023-01-28T06:29:12.906Z,24.45
2023-01-28T06:31:39.298Z,22.90
2023-01-28T06:34:06.016Z,24.42
2023-01-28T06:36:32.853Z,23.48
2023-01-28T06:39:00.193Z,22.83
2023-01-28T06:41:26.612Z,22.83
2023-01-28T06:43:53.413Z,23.63
2023-01-28T06:46:19.921Z,23.45
2023-01-28T06:48:46.397Z,26.45
2023-01-28T06:51:12.807Z,24.23
2023-01-28T06:53:39.228Z,26.42
2023-01-28T06:56:05.897Z,23.48
2023-01-28T06:58:32.530Z,24.15
2023-01-28T07:00:58.933Z,22.52
2023-01-28T07:03:25.771Z,23.48
2023-01-28T07:05:52.547Z,21.85
2023-01-28T07:08:18.915Z,22.40
2023-01-28T07:10:45.764Z,22.33
2023-01-28T07:13:12.326Z,24.35
2023-01-28T07:15:38.726Z,24.25
2023-01-28T07:18:05.391Z,22.05
2023-01-28T07:20:31.860Z,22.70
2023-01-28T07:22:58.287Z,25.50
2023-01-28T07:25:24.935Z,21.05
2023-01-28T07:27:53.615Z,23.00
2023-01-28T07:30:21.053Z,24.33
2023-01-28T07:32:52.675Z,24.77
2023-01-28T07:35:19.140Z,24.27
2023-01-28T07:37:54.437Z,23.98
2023-01-28T07:40:21.554Z,23.58
2023-01-28T07:42:48.372Z,23.70
2023-01-28T07:45:15.556Z,23.58
2023-01-28T07:47:42.254Z,22.70
2023-01-28T07:50:10.986Z,22.02
2023-01-28T07:52:44.205Z,23.40
2023-01-28T07:55:15.433Z,23.63
2023-01-28T07:57:49.920Z,23.38
2023-01-28T08:00:17.242Z,22.30
2023-01-28T08:02:47.895Z,25.50
2023-01-28T08:05:19.292Z,21.88
2023-01-28T08:07:46.641Z,24.98
2023-01-28T08:10:13.683Z,24.83
2023-01-28T08:12:40.339Z,24.63
2023-01-28T08:15:07.554Z,26.75
2023-01-28T08:17:34.147Z,26.55
2023-01-28T08:20:00.578Z,23.10
2023-01-28T08:22:27.942Z,24.92
2023-01-28T08:24:54.342Z,23.42
2023-01-28T08:27:20.767Z,24.75
2023-01-28T08:29:47.139Z,22.40
2023-01-28T08:32:13.529Z,23.90
2023-01-28T08:34:39.888Z,23.55
2023-01-28T08:37:06.390Z,23.35
2023-01-28T08:39:32.812Z,22.92
2023-01-28T08:41:59.176Z,23.85
2023-01-28T08:44:25.530Z,25.10
2023-01-28T08:46:51.928Z,23.65
2023-01-28T08:49:18.311Z,24.70
2023-01-28T08:51:44.722Z,23.73
2023-01-28T08:54:11.259Z,23.42
2023-01-28T08:56:38.938Z,25.20
2023-01-28T08:59:05.335Z,25.00
2023-01-28T09:01:32.125Z,23.92
2023-01-28T09:03:59.299Z,25.05
2023-01-28T09:06:25.734Z,22.20
2023-01-28T09:08:52.309Z,25.45
2023-01-28T09:11:18.990Z,23.05
2023-01-28T09:13:45.412Z,22.42
2023-01-28T09:16:11.881Z,23.80
2023-01-28T09:18:38.313Z,23.05
2023-01-28T09:21:06.513Z,25.70
2023-01-28T09:23:36.498Z,22.70
2023-01-28T09:26:04.448Z,24.45
2023-01-28T09:28:31.476Z,22.98
2023-01-28T09:31:09.108Z,23.70
2023-01-28T09:33:37.227Z,24.25
2023-01-28T09:36:05.617Z,23.50
2023-01-28T09:38:34.979Z,23.92
2023-01-28T09:41:03.941Z,25.15
2023-01-28T09:43:54.361Z,24.50
2023-01-28T09:46:20.991Z,26.90
2023-01-28T09:48:52.072Z,28.85
2023-01-28T09:51:40.397Z,34.58
2023-01-28T09:54:49.846Z,23.58
2023-01-28T09:57:23.343Z,27.30
2023-01-28T09:59:50.263Z,28.60
2023-01-28T10:02:33.947Z,24.95
2023-01-28T10:07:41.426Z,28.53
2023-01-28T10:10:28.765Z,27.33
2023-01-28T10:13:02.177Z,25.00
2023-01-28T10:18:17.718Z,24.83
2023-01-28T10:20:52.378Z,25.52
2023-01-28T10:23:28.038Z,29.50
2023-01-28T10:25:57.853Z,25.30
2023-01-28T10:28:27.907Z,26.48
2023-01-28T10:30:54.977Z,25.45
2023-01-28T10:33:27.553Z,28.08
2023-01-28T10:35:57.784Z,26.35
2023-01-28T10:38:26.832Z,28.10
2023-01-28T10:40:58.283Z,25.40
2023-01-28T10:43:26.748Z,26.60
2023-01-28T10:46:18.422Z,26.60
2023-01-28T10:48:56.385Z,27.13
2023-01-28T10:51:34.739Z,24.23
2023-01-28T10:54:01.357Z,24.52
2023-01-28T10:56:35.491Z,25.67
2023-01-28T10:59:06.238Z,25.20
2023-01-28T11:01:47.437Z,23.45
2023-01-28T11:04:20.215Z,24.50
2023-01-28T11:06:54.108Z,24.85
2023-01-28T11:09:25.582Z,28.90
2023-01-28T11:11:52.096Z,25.13
2023-01-28T11:14:24.135Z,25.00
2023-01-28T11:16:52.387Z,24.85
2023-01-28T11:19:22.963Z,25.50
2023-01-28T11:21:54.221Z,26.45
2023-01-28T11:24:26.345Z,27.55
2023-01-28T11:26:55.386Z,25.35
2023-01-28T11:29:24.734Z,27.23
2023-01-28T11:31:51.700Z,29.08
2023-01-28T11:34:19.493Z,28.70
2023-01-28T11:37:03.761Z,28.02
2023-01-28T11:39:30.689Z,24.77
2023-01-28T11:42:12.366Z,26.40
2023-01-28T11:44:40.096Z,25.27
2023-01-28T11:47:47.161Z,27.00
2023-01-28T11:50:33.183Z,25.98
2023-01-28T11:53:24.154Z,24.13
2023-01-28T11:56:26.223Z,24.85
2023-01-28T11:59:09.676Z,29.00
2023-01-28T12:02:06.648Z,28.10
2023-01-28T12:04:48.239Z,27.90
2023-01-28T12:07:35.958Z,28.95
2023-01-28T12:10:28.346Z,30.45
2023-01-28T12:13:22.678Z,32.30
2023-01-28T12:16:12.513Z,26.85
2023-01-28T12:19:03.183Z,30.25
2023-01-28T12:21:36.657Z,31.77
2023-01-28T12:24:18.377Z,31.48
2023-01-28T12:27:26.713Z,28.10
2023-01-28T12:30:11.486Z,30.40
2023-01-28T12:33:08.611Z,27.33
2023-01-28T12:35:58.415Z,27.58
2023-01-28T12:38:50.536Z,30.15
2023-01-28T12:41:20.681Z,28.55
2023-01-28T12:43:54.765Z,31.80
2023-01-28T12:46:42.709Z,31.75
2023-01-28T12:49:17.951Z,31.60
2023-01-28T12:52:08.842Z,29.02
2023-01-28T12:55:06.764Z,29.33
2023-01-28T12:57:35.200Z,38.38
2023-01-28T13:00:25.837Z,36.38
2023-01-28T13:03:02.057Z,34.08
2023-01-28T13:05:38.463Z,34.08
2023-01-28T13:08:15.120Z,35.30
2023-01-28T13:10:43.978Z,38.10
2023-01-28T13:13:33.733Z,32.67
2023-01-28T13:16:01.638Z,34.20
2023-01-28T13:19:04.040Z,35.80
2023-01-28T13:21:40.167Z,39.30
2023-01-28T13:26:51.242Z,34.40
2023-01-28T13:29:30.296Z,34.97
2023-01-28T13:32:00.173Z,39.65
2023-01-28T13:34:40.640Z,40.88
2023-01-28T13:37:15.965Z,34.05
2023-01-28T13:39:49.616Z,33.72
2023-01-28T13:42:22.755Z,35.03
2023-01-28T13:44:49.635Z,36.78
2023-01-28T13:47:33.901Z,37.17
2023-01-28T13:50:04.482Z,37.83
2023-01-28T13:52:37.496Z,39.97
2023-01-28T13:55:33.690Z,36.30
2023-01-28T13:58:06.395Z,37.45
2023-01-28T14:01:01.123Z,38.78
2023-01-28T14:04:05.122Z,36.78
2023-01-28T14:06:37.553Z,41.17
2023-01-28T14:09:31.855Z,34.93
2023-01-28T14:12:13.275Z,35.95
2023-01-28T14:15:07.854Z,36.15
2023-01-28T14:17:53.845Z,35.10
2023-01-28T14:20:25.282Z,36.83
2023-01-28T14:22:59.300Z,36.00
2023-01-28T14:28:02.589Z,36.08
2023-01-28T14:30:42.268Z,34.90
2023-01-28T14:33:11.865Z,40.85
2023-01-28T14:35:44.907Z,41.85
2023-01-28T14:38:17.598Z,40.65
2023-01-28T14:40:45.292Z,37.38
2023-01-28T14:43:20.449Z,42.03
2023-01-28T14:46:28.163Z,40.63
2023-01-28T14:49:17.220Z,41.78
2023-01-28T14:52:20.411Z,41.30
2023-01-28T14:55:04.481Z,39.22
2023-01-28T14:57:30.965Z,38.50
2023-01-28T14:59:58.133Z,39.28
2023-01-28T15:02:26.751Z,40.72
2023-01-28T15:04:53.785Z,45.17
2023-01-28T15:07:21.776Z,41.40
2023-01-28T15:10:07.146Z,39.08
2023-01-28T15:12:38.780Z,38.90
2023-01-28T15:15:33.946Z,35.88
2023-01-28T15:18:04.349Z,37.42
2023-01-28T15:20:32.053Z,37.38
2023-01-28T15:22:59.005Z,37.53
2023-01-28T15:25:29.197Z,37.95
2023-01-28T15:28:01.714Z,39.22
2023-01-28T15:30:31.782Z,38.40
2023-01-28T15:33:03.314Z,41.33
2023-01-28T15:35:30.175Z,39.35
2023-01-28T15:37:57.043Z,38.65
2023-01-28T15:40:25.901Z,40.20
2023-01-28T15:42:55.199Z,39.97
2023-01-28T15:45:23.448Z,42.88
2023-01-28T15:47:51.273Z,41.88
2023-01-28T15:50:21.396Z,41.38
2023-01-28T15:52:49.237Z,36.88
2023-01-28T15:55:37.459Z,40.08
2023-01-28T15:58:18.688Z,38.58
2023-01-28T16:00:46.120Z,41.42
2023-01-28T16:03:21.677Z,40.72
2023-01-28T16:06:19.725Z,36.40
2023-01-28T16:08:48.122Z,39.08
2023-01-28T16:11:22.870Z,42.35
2023-01-28T16:13:49.609Z,38.92
2023-01-28T16:16:26.932Z,42.38
2023-01-28T16:18:55.657Z,37.75
2023-01-28T16:21:28.864Z,36.20
2023-01-28T16:23:59.954Z,36.33
2023-01-28T16:26:29.447Z,38.47
2023-01-28T16:28:55.930Z,42.13
2023-01-28T16:31:22.549Z,44.53
2023-01-28T16:33:49.117Z,44.38
2023-01-28T16:36:19.168Z,41.65
2023-01-28T16:38:46.275Z,41.13
2023-01-28T16:41:15.702Z,37.88
2023-01-28T16:43:42.114Z,35.58
2023-01-28T16:46:11.556Z,38.13
2023-01-28T16:48:37.942Z,38.63
2023-01-28T16:51:04.832Z,38.08
2023-01-28T16:53:33.651Z,36.88
2023-01-28T16:56:00.387Z,34.88
2023-01-28T16:58:27.514Z,35.92
2023-01-28T17:00:54.264Z,39.35
2023-01-28T17:03:20.851Z,36.92
2023-01-28T17:05:47.455Z,36.08
2023-01-28T17:08:13.911Z,36.22
2023-01-28T17:10:40.315Z,40.35
2023-01-28T17:13:07.033Z,41.30
2023-01-28T17:15:35.378Z,44.58
2023-01-28T17:18:01.814Z,44.80
2023-01-28T17:20:28.304Z,47.28
2023-01-28T17:22:54.667Z,46.65
2023-01-28T17:25:21.028Z,45.83
2023-01-28T17:27:50.090Z,48.85
2023-01-28T17:30:19.208Z,48.42
2023-01-28T17:32:45.718Z,48.92
2023-01-28T17:35:12.224Z,51.40
2023-01-28T17:37:38.911Z,50.83
2023-01-28T17:40:05.883Z,49.85
2023-01-28T17:42:32.379Z,50.28
2023-01-28T17:45:02.925Z,46.88
2023-01-28T17:47:30.709Z,51.13
2023-01-28T17:49:57.942Z,52.05
2023-01-28T17:52:24.677Z,50.33
2023-01-28T17:54:51.178Z,62.90
2023-01-28T17:57:17.584Z,84.43
2023-01-28T17:59:43.991Z,124.07
2023-01-28T18:02:11.681Z,145.48
2023-01-28T18:04:39.545Z,142.25
2023-01-28T18:07:10.747Z,133.13
2023-01-28T18:09:42.262Z,72.03
2023-01-28T18:12:12.217Z,78.85
2023-01-28T18:14:39.501Z,74.40
2023-01-28T18:17:06.821Z,77.72
2023-01-28T18:19:33.473Z,71.97
2023-01-28T18:21:59.870Z,62.97
2023-01-28T18:24:28.847Z,67.80
2023-01-28T18:27:00.865Z,81.50
2023-01-28T18:29:28.828Z,93.00
2023-01-28T18:31:56.807Z,102.57
2023-01-28T18:34:25.756Z,141.00
2023-01-28T18:36:52.697Z,144.82
2023-01-28T18:39:20.895Z,163.45
2023-01-28T18:41:47.673Z,140.93
2023-01-28T18:44:15.397Z,111.13
2023-01-28T18:46:42.109Z,132.57
2023-01-28T18:49:08.621Z,143.00
2023-01-28T18:51:35.200Z,154.95
2023-01-28T18:54:03.977Z,184.60
2023-01-28T18:56:31.670Z,178.57
2023-01-28T18:58:59.717Z,167.68
2023-01-28T19:01:26.908Z,143.13
2023-01-28T19:03:56.991Z,127.75
2023-01-28T19:06:24.147Z,88.72
2023-01-28T19:09:01.795Z,74.07
2023-01-28T19:11:29.711Z,67.80
2023-01-28T19:13:56.830Z,75.22
2023-01-28T19:16:24.542Z,68.45
2023-01-28T19:18:56.155Z,64.82
2023-01-28T19:21:23.547Z,66.60
2023-01-28T19:23:58.459Z,65.38
2023-01-28T19:26:26.441Z,63.05
2023-01-28T19:28:52.928Z,61.88
2023-01-28T19:31:21.449Z,63.83
2023-01-28T19:33:48.933Z,62.58
2023-01-28T19:36:15.673Z,66.22
2023-01-28T19:38:42.120Z,68.72
2023-01-28T19:41:08.560Z,68.50
2023-01-28T19:43:35.369Z,72.07
2023-01-28T19:46:05.870Z,68.95
2023-01-28T19:48:33.368Z,66.40
2023-01-28T19:51:07.327Z,62.85
2023-01-28T19:53:35.139Z,65.18
2023-01-28T19:56:07.859Z,66.82
2023-01-28T19:58:35.790Z,69.35
2023-01-28T20:01:07.207Z,66.22
2023-01-28T20:03:33.861Z,64.68
2023-01-28T20:06:05.023Z,64.40
2023-01-28T20:08:32.297Z,66.38
2023-01-28T20:11:03.372Z,68.20
2023-01-28T20:13:31.369Z,63.30
2023-01-28T20:15:58.030Z,66.53
2023-01-28T20:18:25.802Z,66.00
2023-01-28T20:20:55.706Z,61.47
2023-01-28T20:23:22.973Z,62.55
2023-01-28T20:25:51.153Z,64.60
2023-01-28T20:28:18.119Z,63.65
2023-01-28T20:30:44.618Z,63.78
2023-01-28T20:33:11.178Z,65.05
2023-01-28T20:35:37.642Z,64.75
2023-01-28T20:38:04.172Z,66.68
2023-01-28T20:40:31.241Z,66.15
2023-01-28T20:42:57.944Z,71.05
2023-01-28T20:45:24.618Z,64.68
2023-01-28T20:47:51.194Z,63.53
2023-01-28T20:50:17.978Z,60.70
2023-01-28T20:52:44.718Z,64.95
2023-01-28T20:55:11.765Z,69.80
2023-01-28T20:57:38.585Z,64.35
2023-01-28T21:00:06.318Z,68.82
2023-01-28T21:02:35.355Z,68.93
2023-01-28T21:05:02.288Z,71.97
2023-01-28T21:07:28.688Z,81.72
2023-01-28T21:09:55.179Z,70.22
2023-01-28T21:12:21.585Z,75.68
2023-01-28T21:14:50.033Z,103.53
2023-01-28T21:17:16.552Z,88.88
2023-01-28T21:19:43.048Z,104.80
2023-01-28T21:22:09.428Z,97.28
2023-01-28T21:24:35.866Z,99.55
2023-01-28T21:27:02.335Z,94.30
2023-01-28T21:29:28.742Z,107.15
2023-01-28T21:31:55.135Z,120.10
2023-01-28T21:34:21.554Z,101.72
2023-01-28T21:36:47.933Z,126.85
2023-01-28T21:39:14.322Z,126.88
2023-01-28T21:41:40.713Z,109.63
2023-01-28T21:44:07.228Z,94.32
2023-01-28T21:46:34.837Z,84.55
2023-01-28T21:49:03.322Z,77.68
2023-01-28T21:51:36.417Z,82.65
2023-01-28T21:54:04.421Z,72.65
2023-01-28T21:56:30.875Z,68.93
2023-01-28T21:59:15.717Z,71.20
2023-01-28T22:01:45.892Z,66.25
2023-01-28T22:04:12.767Z,66.15
2023-01-28T22:06:39.159Z,68.95
2023-01-28T22:09:05.651Z,67.68
2023-01-28T22:11:32.414Z,68.72
2023-01-28T22:13:58.998Z,67.60
2023-01-28T22:16:25.572Z,68.03
2023-01-28T22:18:51.961Z,66.47
2023-01-28T22:21:18.365Z,67.78
2023-01-28T22:23:44.777Z,66.05
2023-01-28T22:26:11.179Z,65.35
2023-01-28T22:28:37.883Z,62.67
2023-01-28T22:31:10.205Z,66.43
2023-01-28T22:33:37.178Z,66.47
2023-01-28T22:36:08.721Z,63.80
2023-01-28T22:38:36.786Z,63.40
2023-01-28T22:41:05.241Z,64.03
2023-01-28T22:43:32.056Z,68.38
2023-01-28T22:46:00.162Z,67.35
2023-01-28T22:48:26.985Z,61.72
2023-01-28T22:50:53.413Z,64.22
2023-01-28T22:53:19.883Z,66.40
2023-01-28T22:55:50.491Z,67.32
2023-01-28T22:58:17.307Z,62.40
2023-01-28T23:00:43.700Z,70.82
2023-01-28T23:03:10.199Z,72.28
2023-01-28T23:05:36.952Z,68.22
2023-01-28T23:08:12.566Z,71.18
2023-01-28T23:10:52.525Z,70.70
2023-01-28T23:13:22.301Z,71.50
2023-01-28T23:16:08.743Z,65.78
2023-01-28T23:18:41.794Z,65.50
2023-01-28T23:21:40.124Z,66.50
2023-01-28T23:24:21.682Z,66.03
2023-01-28T23:26:56.497Z,88.75
2023-01-28T23:29:25.255Z,77.40
2023-01-28T23:32:00.919Z,79.20
2023-01-28T23:34:34.329Z,78.35
2023-01-28T23:37:02.609Z,82.85
2023-01-28T23:39:29.066Z,77.07
2023-01-28T23:41:55.737Z,75.63
2023-01-28T23:44:23.659Z,72.07
2023-01-28T23:46:50.121Z,67.07
2023-01-28T23:49:16.647Z,69.47
2023-01-28T23:51:43.153Z,69.05
2023-01-28T23:54:09.570Z,65.18
2023-01-28T23:56:36.063Z,65.85
2023-01-28T23:59:02.772Z,66.25
